Pagina principale
METAR-TAF:

METAR-TAF

Aeroporti :

Aeroporto di Londra-Ashford

Lydd, Inghilterra

latitudine: 50-57N, longitudine: 000-56E, altezza: 3 m

Osservazione

Il bollettino è stato emesso 27 minuti fa, alle 06:50 UTC
Vento 13 kt da nord/nord-ovest
Temperature 7°C
Umidità 93%
Pressione 1012 hPa
Visibilità 10 km o più

METAR: EGMD 180650Z AUTO 33013KT 9999 NCD 07/06 Q1012

Ora: 07:17 (07:17 UTC)

Previsione

Il bollettino è stato emesso 2 ore e 23 minuti fa, alle 04:54 UTC
Previsione valida dal 18 alle 06 UTC al 18 alle 15 UTC
Vento 15 kt da nord
Visibilità 10 km o più
Poco nuvoloso ad un'altezza di 3000 ft
Probabilità 30% :
Temporaneamente
dal 18 alle 06 UTC al 18 alle 10 UTC
Nuvoloso ad un'altezza di 1200 ft
Temporaneamente
dal 18 alle 07 UTC al 18 alle 12 UTC
Vento 18 kt da nord/nord-ovest con raffiche fino a 28 kt

TAF: EGMD 180454Z 1806/1815 35015KT 9999 FEW030 PROB30 TEMPO 1806/1810 BKN012 TEMPO 1807/1812 34018G28KT

Osservazioni e previsioni meteorologiche di più di 4000 aeroporti (messaggi METAR e TAF).

Le stazioni disponibili sono rappresentate dai dischi gialli e rossi sulla carta.

Puntare il mouse per vedere il nome della stazione.

Clicca sopra per visualizzare le osservazioni e previsioni meteorologiche.

Per cambiare la mappa : fare clic sui pulsanti verdi con una croce nera per ingrandire, il pulsante verde con un trattino per diminuire, o sulla freccia verde per le mappe adiacenti.


METAR-TAF: